Time;durP1;ratioP1;P1;durP2;ratioP2;P2;SDS_P1;SDS_P2;PMS_P1;PMS_P2;Temp;Humidity;BMP_temperature;BMP_pressure;BME280_temperature;BME280_humidity;BME280_pressure;Samples;Min_cycle;Max_cycle;Signal;HPM_P1;HPM_P2
2024/03/09 00:01:00;;;;;;;1.60;1.50;;;25.30;1.00;;;;;;2611789;47;20510;-58
2024/03/09 00:03:26;;;;;;;1.60;1.50;;;25.20;1.00;;;;;;2608599;54;21014;-58
2024/03/09 00:05:52;;;;;;;2.73;2.53;;;25.30;1.00;;;;;;2610821;54;20671;-58
2024/03/09 00:08:18;;;;;;;1.80;1.70;;;25.20;1.00;;;;;;2612170;54;20507;-58
2024/03/09 00:10:44;;;;;;;1.53;1.43;;;25.20;1.00;;;;;;2612667;54;20404;-56
2024/03/09 00:13:10;;;;;;;1.50;1.40;;;25.20;1.00;;;;;;2612288;54;20234;-58
2024/03/09 00:15:37;;;;;;;1.20;1.20;;;25.30;1.00;;;;;;2612118;54;20443;-58
2024/03/09 00:18:04;;;;;;;1.60;1.50;;;25.20;1.00;;;;;;2611020;54;20503;-58
2024/03/09 00:20:34;;;;;;;1.60;1.50;;;25.20;1.00;;;;;;2612215;54;20408;-60
2024/03/09 00:23:01;;;;;;;1.50;1.40;;;25.20;1.00;;;;;;2611496;54;20424;-60
2024/03/09 00:25:31;;;;;;;1.53;1.43;;;25.20;1.00;;;;;;2612712;54;20420;-60
2024/03/09 00:27:57;;;;;;;2.70;2.60;;;25.20;1.00;;;;;;2613051;54;20414;-60
2024/03/09 00:30:29;;;;;;;3.40;3.20;;;25.20;1.00;;;;;;2612902;54;20415;-60
2024/03/09 00:32:57;;;;;;;1.37;1.37;;;25.10;1.00;;;;;;2612817;54;20464;-61
2024/03/09 00:35:24;;;;;;;1.77;1.67;;;25.10;1.00;;;;;;2612033;39;20853;-60
2024/03/09 00:37:50;;;;;;;1.10;1.10;;;25.20;1.00;;;;;;2612745;39;20969;-60
2024/03/09 00:40:17;;;;;;;1.60;1.50;;;25.20;1.00;;;;;;2613237;54;20412;-60
2024/03/09 00:42:43;;;;;;;1.50;1.40;;;25.20;1.00;;;;;;2611918;54;20495;-60
2024/03/09 00:45:13;;;;;;;1.40;1.30;;;25.10;1.00;;;;;;2611338;39;20866;-60
2024/03/09 00:47:40;;;;;;;1.53;1.43;;;25.10;1.00;;;;;;2611190;54;20395;-59
2024/03/09 00:50:08;;;;;;;1.20;1.20;;;25.10;1.00;;;;;;2609667;54;20434;-60
2024/03/09 00:52:34;;;;;;;1.50;1.40;;;25.10;1.00;;;;;;2611696;46;20465;-61
2024/03/09 00:55:00;;;;;;;1.50;1.40;;;25.10;1.00;;;;;;2611125;47;21376;-60
2024/03/09 00:57:26;;;;;;;1.13;1.13;;;25.10;1.00;;;;;;2612227;54;20980;-60
2024/03/09 00:59:55;;;;;;;1.33;1.30;;;25.10;1.00;;;;;;2611513;54;20514;-60
2024/03/09 01:02:21;;;;;;;1.43;1.40;;;25.10;1.00;;;;;;2612035;39;20562;-60
2024/03/09 01:04:51;;;;;;;1.80;1.70;;;25.00;1.00;;;;;;2611991;47;20403;-60
2024/03/09 01:07:22;;;;;;;1.60;1.50;;;25.00;1.00;;;;;;2612130;39;20793;-60
2024/03/09 01:09:48;;;;;;;1.43;1.33;;;25.00;1.00;;;;;;2613140;54;20408;-58
2024/03/09 01:12:15;;;;;;;3.50;3.30;;;25.00;1.00;;;;;;2611244;54;20967;-59
2024/03/09 01:14:41;;;;;;;1.50;1.40;;;24.90;1.00;;;;;;2611161;54;20880;-58
2024/03/09 01:17:06;;;;;;;1.20;1.20;;;24.90;1.00;;;;;;2611428;46;20427;-59
2024/03/09 01:19:32;;;;;;;1.70;1.60;;;24.90;1.00;;;;;;2612463;54;20154;-59
2024/03/09 01:22:05;;;;;;;1.70;1.60;;;24.90;1.00;;;;;;2612074;54;20163;-58
2024/03/09 01:24:31;;;;;;;1.90;1.80;;;25.10;1.00;;;;;;2611377;54;20194;-59
2024/03/09 01:26:57;;;;;;;1.70;1.60;;;25.10;1.00;;;;;;2612571;54;20901;-59
2024/03/09 01:29:23;;;;;;;1.63;1.53;;;25.00;1.00;;;;;;2612307;54;20419;-59
2024/03/09 01:31:51;;;;;;;4.57;4.13;;;25.00;1.00;;;;;;2608975;54;20879;-59
2024/03/09 01:34:16;;;;;;;1.47;1.37;;;25.00;1.00;;;;;;2613187;54;20453;-59
2024/03/09 01:36:45;;;;;;;1.50;1.40;;;25.00;1.00;;;;;;2611827;54;20447;-59
2024/03/09 01:39:13;;;;;;;13.67;12.87;;;25.00;1.00;;;;;;2611729;54;20526;-58
2024/03/09 01:41:38;;;;;;;1.90;1.80;;;24.90;1.00;;;;;;2612385;54;20403;-58
2024/03/09 01:44:04;;;;;;;1.80;1.70;;;24.90;1.00;;;;;;2614030;47;20474;-59
2024/03/09 01:46:30;;;;;;;1.70;1.60;;;24.90;1.00;;;;;;2613286;54;20730;-59
2024/03/09 01:48:56;;;;;;;1.70;1.60;;;24.90;1.00;;;;;;2612944;54;20216;-59
2024/03/09 01:51:22;;;;;;;1.70;1.60;;;24.90;1.00;;;;;;2613242;47;20435;-59
2024/03/09 01:53:53;;;;;;;1.47;1.37;;;24.90;1.00;;;;;;2612191;54;20169;-59
2024/03/09 01:56:21;;;;;;;2.10;2.00;;;24.90;1.00;;;;;;2613608;54;20554;-60
2024/03/09 01:58:46;;;;;;;1.47;1.37;;;24.90;1.00;;;;;;2613396;54;20419;-60
2024/03/09 02:01:22;;;;;;;1.50;1.40;;;24.90;1.00;;;;;;2611488;54;20404;-59
2024/03/09 02:03:57;;;;;;;1.70;1.60;;;24.90;1.00;;;;;;2612369;47;20165;-60
2024/03/09 02:06:27;;;;;;;2.60;2.50;;;24.90;1.00;;;;;;2612054;54;20430;-60
2024/03/09 02:08:53;;;;;;;1.70;1.60;;;24.90;1.00;;;;;;2613382;54;20839;-59
2024/03/09 02:11:20;;;;;;;1.80;1.70;;;24.90;1.00;;;;;;2613573;54;20503;-60
2024/03/09 02:13:46;;;;;;;1.70;1.60;;;24.90;1.00;;;;;;2613649;54;20407;-60
2024/03/09 02:16:12;;;;;;;1.60;1.50;;;24.90;1.00;;;;;;2613810;54;20383;-60
2024/03/09 02:18:39;;;;;;;1.73;1.63;;;24.90;1.00;;;;;;2613283;39;21057;-60
2024/03/09 02:21:08;;;;;;;1.50;1.40;;;24.90;1.00;;;;;;2613665;54;20161;-60
2024/03/09 02:23:35;;;;;;;2.00;1.90;;;24.90;1.00;;;;;;2612862;54;20403;-60
2024/03/09 02:26:01;;;;;;;1.80;1.70;;;24.90;1.00;;;;;;2612565;54;21026;-61
2024/03/09 02:28:30;;;;;;;1.80;1.70;;;24.80;1.00;;;;;;2611627;54;20439;-60
2024/03/09 02:30:56;;;;;;;2.00;1.90;;;24.80;1.00;;;;;;2613208;54;20988;-61
2024/03/09 02:33:21;;;;;;;2.10;2.00;;;24.80;1.00;;;;;;2612627;47;20436;-61
2024/03/09 02:35:47;;;;;;;2.17;2.07;;;24.80;1.00;;;;;;2612447;54;20178;-60
2024/03/09 02:38:14;;;;;;;2.07;1.97;;;24.80;1.00;;;;;;2612898;54;20208;-61
2024/03/09 02:40:40;;;;;;;2.00;1.90;;;24.80;1.00;;;;;;2612044;54;20511;-60
2024/03/09 02:43:07;;;;;;;2.10;2.00;;;24.80;1.00;;;;;;2612014;54;21041;-61
2024/03/09 02:45:33;;;;;;;2.20;2.10;;;24.80;1.00;;;;;;2612094;54;20404;-60
2024/03/09 02:47:59;;;;;;;2.63;2.53;;;24.90;1.00;;;;;;2612576;54;20428;-60
2024/03/09 02:50:26;;;;;;;1.80;1.70;;;24.90;1.00;;;;;;2611438;54;20538;-59
2024/03/09 02:52:53;;;;;;;1.90;1.80;;;24.80;1.00;;;;;;2612345;47;20162;-60
2024/03/09 02:55:19;;;;;;;2.10;2.00;;;24.80;1.00;;;;;;2612468;46;20931;-60
2024/03/09 02:57:46;;;;;;;2.10;2.00;;;24.80;1.00;;;;;;2610608;54;20547;-60
2024/03/09 03:00:13;;;;;;;2.10;2.00;;;24.80;1.00;;;;;;2611783;39;20562;-60
2024/03/09 03:05:24;;;;;;;2.03;1.93;;;24.80;1.00;;;;;;2611652;54;20386;-60
2024/03/09 03:07:51;;;;;;;2.43;2.33;;;24.80;1.00;;;;;;2612038;54;20416;-60
2024/03/09 03:10:17;;;;;;;1.70;1.60;;;24.80;1.00;;;;;;2612571;54;20403;-60
2024/03/09 03:12:43;;;;;;;2.10;2.00;;;24.80;1.00;;;;;;2611869;54;20443;-60
2024/03/09 03:15:11;;;;;;;1.80;1.70;;;24.80;1.00;;;;;;2611870;39;20794;-60
2024/03/09 03:17:37;;;;;;;1.80;1.70;;;24.80;1.00;;;;;;2612401;54;20399;-60
2024/03/09 03:20:08;;;;;;;2.00;1.90;;;24.80;1.00;;;;;;2612108;54;20430;-60
2024/03/09 03:22:34;;;;;;;2.00;1.90;;;24.80;1.00;;;;;;2610403;54;20458;-60
2024/03/09 03:25:00;;;;;;;1.97;1.87;;;24.80;1.00;;;;;;2612975;54;20716;-60
2024/03/09 03:27:25;;;;;;;1.90;1.80;;;24.70;1.00;;;;;;2612392;47;20162;-60
2024/03/09 03:29:51;;;;;;;2.10;2.00;;;24.80;1.00;;;;;;2613471;54;20149;-58
2024/03/09 03:32:17;;;;;;;2.10;2.00;;;24.80;1.00;;;;;;2612098;54;20173;-57
2024/03/09 03:34:46;;;;;;;2.00;1.90;;;24.80;1.00;;;;;;2611570;54;20683;-56
2024/03/09 03:37:12;;;;;;;2.20;2.10;;;24.80;1.00;;;;;;2612298;39;21199;-56
2024/03/09 03:39:38;;;;;;;2.00;1.90;;;24.80;1.00;;;;;;2613274;39;20525;-57
2024/03/09 03:42:04;;;;;;;2.10;2.00;;;24.90;1.00;;;;;;2611357;50;20155;-56
2024/03/09 03:44:34;;;;;;;2.20;2.10;;;24.80;1.00;;;;;;2611169;54;20151;-56
2024/03/09 03:47:00;;;;;;;1.93;1.83;;;24.80;1.00;;;;;;2611959;54;20507;-57
2024/03/09 03:49:27;;;;;;;4.63;4.43;;;24.80;1.00;;;;;;2612750;54;20967;-58
2024/03/09 03:51:55;;;;;;;2.10;2.00;;;24.80;1.00;;;;;;2610462;54;20150;-57
2024/03/09 03:54:22;;;;;;;2.10;2.00;;;24.80;1.00;;;;;;2612128;54;20411;-58
2024/03/09 03:56:48;;;;;;;2.10;2.00;;;24.80;1.00;;;;;;2613628;54;20550;-60
2024/03/09 03:59:13;;;;;;;2.00;1.90;;;24.70;1.00;;;;;;2611990;39;21163;-59
2024/03/09 04:01:39;;;;;;;2.53;2.43;;;24.70;1.00;;;;;;2608765;54;20419;-62
2024/03/09 04:04:06;;;;;;;2.00;1.90;;;24.70;1.00;;;;;;2612320;54;20666;-60
2024/03/09 04:06:33;;;;;;;2.10;2.00;;;24.70;1.00;;;;;;2610246;54;20150;-60
2024/03/09 04:08:59;;;;;;;2.10;2.00;;;24.80;1.00;;;;;;2612739;54;20434;-60
2024/03/09 04:11:32;;;;;;;2.00;1.90;;;24.80;1.00;;;;;;2612106;54;20424;-60
2024/03/09 04:13:58;;;;;;;2.30;2.20;;;24.70;1.00;;;;;;2612798;54;20150;-60
2024/03/09 04:16:24;;;;;;;2.03;1.93;;;24.70;1.00;;;;;;2612323;54;21325;-60
2024/03/09 04:18:49;;;;;;;2.03;1.93;;;24.70;1.00;;;;;;2612173;54;20406;-60
2024/03/09 04:21:16;;;;;;;1.90;1.80;;;24.70;1.00;;;;;;2612083;54;20166;-60
2024/03/09 04:23:45;;;;;;;1.90;1.80;;;24.80;1.00;;;;;;2612726;54;20147;-60
2024/03/09 04:26:11;;;;;;;3.80;3.70;;;24.80;1.00;;;;;;2612484;39;20479;-60
2024/03/09 04:28:37;;;;;;;2.30;2.20;;;24.80;1.00;;;;;;2612314;54;20437;-60
2024/03/09 04:31:06;;;;;;;2.10;2.00;;;24.80;1.00;;;;;;2612090;54;20395;-62
2024/03/09 04:33:33;;;;;;;2.10;2.00;;;24.80;1.00;;;;;;2610271;54;20757;-60
2024/03/09 04:35:59;;;;;;;2.20;2.10;;;24.80;1.00;;;;;;2611340;54;20404;-61
2024/03/09 04:38:25;;;;;;;2.00;1.90;;;24.70;1.00;;;;;;2612073;47;20461;-61
2024/03/09 04:40:51;;;;;;;1.97;1.87;;;24.70;1.00;;;;;;2612762;39;20771;-59
2024/03/09 04:43:18;;;;;;;2.47;2.37;;;24.70;1.00;;;;;;2613069;54;20395;-59
2024/03/09 04:45:45;;;;;;;3.90;3.70;;;24.70;1.00;;;;;;2613191;54;20151;-60
2024/03/09 04:48:13;;;;;;;1.73;1.63;;;24.70;1.00;;;;;;2612629;39;20732;-58
2024/03/09 04:50:40;;;;;;;2.53;2.43;;;24.70;1.00;;;;;;2611474;54;20394;-60
2024/03/09 04:53:07;;;;;;;1.90;1.80;;;24.70;1.00;;;;;;2612803;39;21063;-59
2024/03/09 04:55:35;;;;;;;2.00;1.90;;;24.70;1.00;;;;;;2611653;54;20424;-59
2024/03/09 04:58:04;;;;;;;1.40;1.40;;;24.70;1.00;;;;;;2613493;39;20932;-59
2024/03/09 05:00:30;;;;;;;2.07;1.97;;;24.70;1.00;;;;;;2612162;54;20431;-59
2024/03/09 05:02:57;;;;;;;1.87;1.77;;;24.80;1.00;;;;;;2609462;54;20494;-58
2024/03/09 05:05:29;;;;;;;1.90;1.80;;;24.80;1.00;;;;;;2608863;39;20489;-59
2024/03/09 05:07:55;;;;;;;2.03;1.93;;;24.90;1.00;;;;;;2612774;54;20406;-61
2024/03/09 05:10:22;;;;;;;2.00;1.90;;;25.00;1.00;;;;;;2612055;47;20411;-62
2024/03/09 05:12:56;;;;;;;1.90;1.80;;;25.10;1.00;;;;;;2611828;54;20400;-62
2024/03/09 05:15:25;;;;;;;1.90;1.80;;;25.10;1.00;;;;;;2609825;54;20403;-62
2024/03/09 05:17:55;;;;;;;1.80;1.70;;;25.00;1.00;;;;;;2612742;54;20380;-62
2024/03/09 05:20:22;;;;;;;1.80;1.70;;;25.00;1.00;;;;;;2612479;54;20395;-61
2024/03/09 05:23:06;;;;;;;1.90;1.80;;;24.90;1.00;;;;;;2612804;54;20445;-61
2024/03/09 05:25:32;;;;;;;1.90;1.80;;;24.90;1.00;;;;;;2611430;54;20403;-62
2024/03/09 05:27:58;;;;;;;1.90;1.80;;;24.90;1.00;;;;;;2612326;54;20550;-61
2024/03/09 05:30:28;;;;;;;2.00;1.90;;;25.00;1.00;;;;;;2612455;54;20772;-61
2024/03/09 05:32:54;;;;;;;1.80;1.70;;;25.10;1.00;;;;;;2613465;39;20561;-61
2024/03/09 05:35:26;;;;;;;1.97;1.87;;;25.00;1.00;;;;;;2612908;54;20987;-62
2024/03/09 05:37:52;;;;;;;1.90;1.80;;;25.00;1.00;;;;;;2613594;54;20399;-60
2024/03/09 05:40:18;;;;;;;1.90;1.80;;;24.90;1.00;;;;;;2612613;54;20414;-61
2024/03/09 05:42:45;;;;;;;2.10;2.00;;;25.00;1.00;;;;;;2611184;54;20425;-61
2024/03/09 05:45:32;;;;;;;1.90;1.80;;;24.90;1.00;;;;;;2612674;54;20531;-61
2024/03/09 05:47:58;;;;;;;1.60;1.50;;;24.80;1.00;;;;;;2613333;54;20446;-61
2024/03/09 05:50:28;;;;;;;1.80;1.70;;;24.90;1.00;;;;;;2611036;54;20434;-56
2024/03/09 05:52:57;;;;;;;1.67;1.57;;;24.80;1.00;;;;;;2611928;54;20431;-57
2024/03/09 05:55:24;;;;;;;1.70;1.60;;;24.80;1.00;;;;;;2611547;54;20443;-57
2024/03/09 05:57:50;;;;;;;1.80;1.70;;;24.80;1.00;;;;;;2613519;54;20418;-59
2024/03/09 06:00:24;;;;;;;1.70;1.60;;;24.80;1.00;;;;;;2611538;54;20426;-57
2024/03/09 06:02:53;;;;;;;1.70;1.60;;;24.80;1.00;;;;;;2612353;54;20387;-58
2024/03/09 06:05:21;;;;;;;1.80;1.70;;;24.80;1.00;;;;;;2612493;31;20874;-58
2024/03/09 06:07:46;;;;;;;1.60;1.50;;;24.80;1.00;;;;;;2611090;54;20411;-56
2024/03/09 06:10:16;;;;;;;1.70;1.60;;;24.80;1.00;;;;;;2609898;54;20407;-57
2024/03/09 06:12:44;;;;;;;1.60;1.50;;;24.80;1.00;;;;;;2611629;54;21241;-58
2024/03/09 06:15:14;;;;;;;1.30;1.30;;;24.80;1.00;;;;;;2611037;54;20485;-58
2024/03/09 06:17:44;;;;;;;1.53;1.43;;;24.80;1.00;;;;;;2612343;51;20956;-58
2024/03/09 06:20:11;;;;;;;3.10;3.00;;;24.80;1.00;;;;;;2612123;54;20392;-60
2024/03/09 06:22:37;;;;;;;1.87;1.77;;;24.70;1.00;;;;;;2612440;54;20411;-60
2024/03/09 06:25:03;;;;;;;1.47;1.40;;;24.70;1.00;;;;;;2611915;54;20411;-60
2024/03/09 06:27:29;;;;;;;1.60;1.50;;;24.70;1.00;;;;;;2612517;54;20439;-60
2024/03/09 06:29:56;;;;;;;1.50;1.40;;;24.70;1.00;;;;;;2612898;54;20434;-60
2024/03/09 06:32:25;;;;;;;1.60;1.50;;;24.70;1.00;;;;;;2611456;39;20552;-60
2024/03/09 06:34:54;;;;;;;1.50;1.40;;;24.70;1.00;;;;;;2612487;54;20518;-59
2024/03/09 06:37:22;;;;;;;1.80;1.70;;;24.70;1.00;;;;;;2612680;54;20443;-60
2024/03/09 06:39:48;;;;;;;1.60;1.50;;;24.70;1.00;;;;;;2611414;54;20391;-60
2024/03/09 06:42:14;;;;;;;1.70;1.60;;;24.70;1.00;;;;;;2611301;54;20547;-58
2024/03/09 06:44:39;;;;;;;1.83;1.73;;;24.70;1.00;;;;;;2612873;54;20427;-59
2024/03/09 06:47:06;;;;;;;1.80;1.70;;;24.70;1.00;;;;;;2612085;54;20154;-59
2024/03/09 06:49:35;;;;;;;1.70;1.60;;;24.70;1.00;;;;;;2610031;39;20371;-59
2024/03/09 06:54:45;;;;;;;1.60;1.50;;;24.80;1.00;;;;;;2616136;54;20248;-59
2024/03/09 06:57:10;;;;;;;1.60;1.50;;;25.00;1.00;;;;;;2617594;54;20419;-59
2024/03/09 06:59:40;;;;;;;1.90;1.80;;;25.00;1.00;;;;;;2615791;54;20406;-59
2024/03/09 07:02:06;;;;;;;1.60;1.50;;;25.00;1.00;;;;;;2614969;54;20154;-58
2024/03/09 07:04:32;;;;;;;1.80;1.70;;;24.90;1.00;;;;;;2616846;54;20493;-58
2024/03/09 07:06:57;;;;;;;3.53;3.43;;;24.90;1.00;;;;;;2615215;54;20406;-60
2024/03/09 07:09:23;;;;;;;1.60;1.50;;;24.90;1.00;;;;;;2615260;54;20200;-59
2024/03/09 07:11:52;;;;;;;1.90;1.80;;;24.80;1.00;;;;;;2614590;54;20150;-58
2024/03/09 07:14:18;;;;;;;1.80;1.70;;;24.80;1.00;;;;;;2612081;54;20401;-59
2024/03/09 07:16:46;;;;;;;2.70;2.60;;;24.90;1.00;;;;;;2615562;54;20416;-59
2024/03/09 07:19:13;;;;;;;2.60;2.50;;;25.00;1.00;;;;;;2614916;38;21130;-58
2024/03/09 07:21:40;;;;;;;3.00;2.90;;;25.10;1.00;;;;;;2614308;51;20926;-59
2024/03/09 07:24:07;;;;;;;2.80;2.70;;;25.10;1.00;;;;;;2617063;54;20770;-58
2024/03/09 07:26:33;;;;;;;3.10;3.00;;;25.10;1.00;;;;;;2616276;38;21020;-59
2024/03/09 07:28:59;;;;;;;2.70;2.60;;;25.10;1.00;;;;;;2616610;54;21047;-59
2024/03/09 07:31:27;;;;;;;3.00;2.90;;;25.00;1.00;;;;;;2617314;54;20395;-60
2024/03/09 07:33:54;;;;;;;3.30;3.20;;;25.10;1.00;;;;;;2616481;54;20436;-59
2024/03/09 07:36:20;;;;;;;3.20;3.10;;;25.10;1.00;;;;;;2617087;38;21007;-59
2024/03/09 07:38:49;;;;;;;3.20;3.10;;;25.10;1.00;;;;;;2616187;54;20967;-59
2024/03/09 07:41:22;;;;;;;2.90;2.80;;;25.10;1.00;;;;;;2615777;38;20927;-59
2024/03/09 07:43:47;;;;;;;3.20;3.10;;;25.10;1.00;;;;;;2617068;54;20506;-59
2024/03/09 07:46:13;;;;;;;5.00;4.80;;;25.10;1.00;;;;;;2614494;54;20430;-59
2024/03/09 07:48:40;;;;;;;3.17;3.07;;;25.20;1.00;;;;;;2615659;54;20166;-58
2024/03/09 07:51:10;;;;;;;2.93;2.83;;;25.30;1.00;;;;;;2616594;31;20866;-59
2024/03/09 07:53:36;;;;;;;2.87;2.77;;;25.30;1.00;;;;;;2616584;38;20753;-60
2024/03/09 07:56:02;;;;;;;2.90;2.80;;;25.30;1.00;;;;;;2615583;54;20985;-60
2024/03/09 07:58:28;;;;;;;2.90;2.80;;;25.30;1.00;;;;;;2612726;54;20242;-59
2024/03/09 08:00:54;;;;;;;3.10;3.00;;;25.60;1.00;;;;;;2616050;54;21448;-57
2024/03/09 08:03:22;;;;;;;4.13;4.03;;;25.90;1.00;;;;;;2616091;49;20174;-62
2024/03/09 08:05:47;;;;;;;4.70;4.60;;;26.00;1.00;;;;;;2613474;54;20225;-63
2024/03/09 08:08:13;;;;;;;2.50;2.40;;;26.00;1.00;;;;;;2610877;54;20419;-61
2024/03/09 08:10:39;;;;;;;2.63;2.53;;;26.10;1.00;;;;;;2612874;54;20147;-61
2024/03/09 08:13:05;;;;;;;2.70;2.60;;;26.10;1.00;;;;;;2612388;54;20151;-62
2024/03/09 08:15:32;;;;;;;2.50;2.40;;;26.00;1.00;;;;;;2612609;54;20980;-62
2024/03/09 08:17:58;;;;;;;2.80;2.70;;;25.90;1.00;;;;;;2611507;39;20591;-62
2024/03/09 08:20:24;;;;;;;2.37;2.27;;;25.90;1.00;;;;;;2611884;54;20477;-62
2024/03/09 08:22:50;;;;;;;2.73;2.63;;;25.90;1.00;;;;;;2611974;54;20156;-62
2024/03/09 08:25:17;;;;;;;2.70;2.60;;;25.90;1.00;;;;;;2612123;39;20730;-62
2024/03/09 08:27:47;;;;;;;2.70;2.60;;;25.60;1.00;;;;;;2612959;54;20514;-62
2024/03/09 08:30:18;;;;;;;2.70;2.60;;;25.10;1.00;;;;;;2612926;54;20435;-62
2024/03/09 08:32:45;;;;;;;2.70;2.60;;;23.70;1.00;;;;;;2612828;54;20415;-62
2024/03/09 08:35:14;;;;;;;2.80;2.70;;;22.60;1.00;;;;;;2613724;54;20446;-62
2024/03/09 08:37:43;;;;;;;2.80;2.70;;;21.70;1.00;;;;;;2613839;54;20431;-61
2024/03/09 08:40:19;;;;;;;2.80;2.70;;;21.20;1.00;;;;;;2613061;54;20415;-64
2024/03/09 08:42:51;;;;;;;2.70;2.60;;;20.90;1.00;;;;;;2613114;47;20411;-64
2024/03/09 08:45:18;;;;;;;2.63;2.53;;;20.50;1.00;;;;;;2612208;54;21003;-64
2024/03/09 08:47:44;;;;;;;3.90;3.70;;;20.20;1.00;;;;;;2614092;54;21116;-70
2024/03/09 08:50:10;;;;;;;3.50;3.40;;;20.70;1.00;;;;;;2613209;54;20420;-65
2024/03/09 08:52:39;;;;;;;3.70;3.60;;;21.40;1.00;;;;;;2613832;54;20458;-60
2024/03/09 08:55:10;;;;;;;3.53;3.43;;;21.90;1.00;;;;;;2612457;54;20778;-61
2024/03/09 08:57:39;;;;;;;3.67;3.57;;;22.40;1.00;;;;;;2613192;54;20522;-62
2024/03/09 09:00:07;;;;;;;3.70;3.60;;;22.80;1.00;;;;;;2612227;54;20404;-66
2024/03/09 09:02:33;;;;;;;3.80;3.70;;;23.20;1.00;;;;;;2611099;46;20449;-62
2024/03/09 09:04:59;;;;;;;4.60;4.40;;;23.40;1.00;;;;;;2612437;54;20395;-63
2024/03/09 09:07:25;;;;;;;4.80;4.60;;;23.70;1.00;;;;;;2611968;54;20961;-64
2024/03/09 09:09:51;;;;;;;4.93;4.73;;;23.80;1.00;;;;;;2613168;54;20403;-67
2024/03/09 09:12:19;;;;;;;5.10;4.90;;;24.00;1.00;;;;;;2612701;54;20161;-68
2024/03/09 09:14:46;;;;;;;5.00;4.80;;;24.10;1.00;;;;;;2613502;39;20765;-70
2024/03/09 09:17:12;;;;;;;5.30;5.10;;;24.20;1.00;;;;;;2611636;54;21129;-67
2024/03/09 09:19:40;;;;;;;5.10;4.90;;;24.30;1.00;;;;;;2612124;54;20431;-67
2024/03/09 09:22:06;;;;;;;5.50;5.30;;;24.40;1.00;;;;;;2613793;39;20778;-68
2024/03/09 09:24:36;;;;;;;5.17;4.97;;;24.50;1.00;;;;;;2613433;39;20739;-68
2024/03/09 09:27:02;;;;;;;3.90;3.80;;;24.60;1.00;;;;;;2612151;54;20408;-62
2024/03/09 09:29:28;;;;;;;3.10;3.00;;;24.70;1.00;;;;;;2612607;54;20151;-62
2024/03/09 09:32:00;;;;;;;2.80;2.70;;;24.80;1.00;;;;;;2613009;39;20885;-62
2024/03/09 09:34:28;;;;;;;2.90;2.80;;;24.90;1.00;;;;;;2613278;54;20968;-63
2024/03/09 09:36:54;;;;;;;3.00;2.90;;;25.10;1.00;;;;;;2613263;54;20482;-62
2024/03/09 09:39:29;;;;;;;2.97;2.87;;;25.20;1.00;;;;;;2612840;54;20419;-62
2024/03/09 09:41:56;;;;;;;2.70;2.60;;;25.30;1.00;;;;;;2611976;47;20447;-64
2024/03/09 09:44:22;;;;;;;2.80;2.70;;;25.30;1.00;;;;;;2613689;54;20426;-61
2024/03/09 09:46:48;;;;;;;2.80;2.70;;;25.20;1.00;;;;;;2613125;54;20494;-59
2024/03/09 09:49:14;;;;;;;2.80;2.70;;;24.70;1.00;;;;;;2611238;54;20435;-58
2024/03/09 09:51:43;;;;;;;9.60;9.30;;;24.30;1.00;;;;;;2612671;54;20182;-59
2024/03/09 09:54:10;;;;;;;9.13;8.83;;;23.90;1.00;;;;;;2611807;54;20448;-58
2024/03/09 09:56:36;;;;;;;9.57;9.27;;;23.70;1.00;;;;;;2612984;54;20526;-60
2024/03/09 09:59:02;;;;;;;14.30;13.80;;;23.50;1.00;;;;;;2611905;47;20430;-59
2024/03/09 10:01:29;;;;;;;14.10;13.60;;;23.20;1.00;;;;;;2611910;54;20146;-58
2024/03/09 10:03:54;;;;;;;14.63;14.13;;;23.00;1.00;;;;;;2612244;54;20159;-57
2024/03/09 10:06:21;;;;;;;12.77;12.37;;;23.00;1.00;;;;;;2612764;54;20395;-54
2024/03/09 10:08:48;;;;;;;11.93;11.53;;;22.90;1.00;;;;;;2612683;54;20181;-56
2024/03/09 10:11:18;;;;;;;12.43;12.03;;;22.80;1.00;;;;;;2612793;54;20515;-55
2024/03/09 10:13:44;;;;;;;11.97;11.57;;;22.70;1.00;;;;;;2612578;54;20415;-56
2024/03/09 10:16:12;;;;;;;12.40;12.00;;;22.70;1.00;;;;;;2613196;54;20439;-56
2024/03/09 10:18:45;;;;;;;12.13;11.73;;;22.70;1.00;;;;;;2612192;47;20438;-54
2024/03/09 10:21:11;;;;;;;13.50;13.10;;;22.80;1.00;;;;;;2612946;54;20435;-56
2024/03/09 10:23:44;;;;;;;12.30;11.90;;;22.70;1.00;;;;;;2612361;54;20399;-56
2024/03/09 10:26:10;;;;;;;12.10;11.70;;;22.60;1.00;;;;;;2612936;54;20400;-56
2024/03/09 10:28:42;;;;;;;12.70;12.30;;;22.60;1.00;;;;;;2611984;54;20424;-58
2024/03/09 10:31:08;;;;;;;13.00;12.60;;;22.70;1.00;;;;;;2611443;54;20419;-61
2024/03/09 10:33:37;;;;;;;12.60;12.20;;;22.80;1.00;;;;;;2610116;54;20992;-58
2024/03/09 10:36:03;;;;;;;12.20;11.80;;;23.00;1.00;;;;;;2612510;54;20173;-58
2024/03/09 10:38:30;;;;;;;3.13;3.03;;;23.00;1.00;;;;;;2612475;54;20430;-62
2024/03/09 10:40:57;;;;;;;2.87;2.77;;;23.00;1.00;;;;;;2612604;54;20495;-61
2024/03/09 10:43:23;;;;;;;2.90;2.80;;;23.30;1.00;;;;;;2612293;54;20419;-59
2024/03/09 10:45:51;;;;;;;3.10;3.00;;;23.70;1.00;;;;;;2613433;54;20399;-60
2024/03/09 10:48:19;;;;;;;3.00;2.90;;;24.10;1.00;;;;;;2612161;54;20250;-60
2024/03/09 10:51:14;;;;;;;2.67;2.57;;;24.50;1.00;;;;;;2613251;39;20778;-60
2024/03/09 10:53:54;;;;;;;3.00;2.90;;;24.70;1.00;;;;;;2611064;54;21023;-62
2024/03/09 10:56:22;;;;;;;2.90;2.80;;;24.90;1.00;;;;;;2612422;47;21054;-62
2024/03/09 10:58:51;;;;;;;2.80;2.70;;;25.10;1.00;;;;;;2612485;54;20424;-62
2024/03/09 11:01:21;;;;;;;3.00;2.90;;;25.30;1.00;;;;;;2612584;51;20525;-61
2024/03/09 11:03:50;;;;;;;2.90;2.80;;;25.40;1.00;;;;;;2612592;54;20438;-61
2024/03/09 11:06:21;;;;;;;5.33;5.03;;;25.50;1.00;;;;;;2613845;31;20898;-61
2024/03/09 11:08:53;;;;;;;3.10;3.00;;;25.60;1.00;;;;;;2613100;54;20395;-63
2024/03/09 11:11:21;;;;;;;3.00;2.90;;;25.60;1.00;;;;;;2611979;54;20387;-63
2024/03/09 11:13:47;;;;;;;2.90;2.80;;;25.70;1.00;;;;;;2612607;54;20439;-63
2024/03/09 11:16:14;;;;;;;2.70;2.60;;;25.80;1.00;;;;;;2612616;54;20427;-63
2024/03/09 11:18:44;;;;;;;2.70;2.60;;;25.90;1.00;;;;;;2612783;54;20414;-63
2024/03/09 11:21:26;;;;;;;2.90;2.80;;;26.00;1.00;;;;;;2611755;47;20443;-58
2024/03/09 11:24:03;;;;;;;3.00;2.90;;;26.00;1.00;;;;;;2612159;54;20416;-57
2024/03/09 11:26:31;;;;;;;2.77;2.67;;;26.10;1.00;;;;;;2612592;54;20409;-57
2024/03/09 11:28:57;;;;;;;2.80;2.70;;;26.20;1.00;;;;;;2612744;39;20949;-56
2024/03/09 11:31:28;;;;;;;3.20;3.10;;;26.20;1.00;;;;;;2611311;54;20411;-58
2024/03/09 11:34:11;;;;;;;3.00;2.90;;;26.20;1.00;;;;;;2612235;54;20155;-60
2024/03/09 11:36:39;;;;;;;3.20;3.10;;;26.30;1.00;;;;;;2612377;54;20372;-59
2024/03/09 11:39:08;;;;;;;3.20;3.10;;;26.30;1.00;;;;;;2611944;54;20398;-62
2024/03/09 11:41:36;;;;;;;2.87;2.77;;;26.30;1.00;;;;;;2612516;54;20995;-62
2024/03/09 11:44:05;;;;;;;3.10;3.00;;;26.30;1.00;;;;;;2614139;54;20983;-61
2024/03/09 11:46:35;;;;;;;3.17;3.07;;;26.40;1.00;;;;;;2613800;39;20797;-61
2024/03/09 11:49:06;;;;;;;3.07;2.97;;;26.30;1.00;;;;;;2613333;54;20403;-61
2024/03/09 11:51:35;;;;;;;3.20;3.10;;;26.30;1.00;;;;;;2614707;31;20855;-61
2024/03/09 11:54:06;;;;;;;3.10;3.00;;;26.40;1.00;;;;;;2613261;54;21000;-62
2024/03/09 11:56:34;;;;;;;3.00;2.90;;;26.40;1.00;;;;;;2613274;54;20550;-63
2024/03/09 11:59:00;;;;;;;3.10;3.00;;;26.40;1.00;;;;;;2614175;39;20864;-63
2024/03/09 12:01:26;;;;;;;3.30;3.20;;;26.40;1.00;;;;;;2612379;54;20395;-62
2024/03/09 12:03:53;;;;;;;3.40;3.30;;;26.40;1.00;;;;;;2612969;47;20442;-62
2024/03/09 12:06:23;;;;;;;3.60;3.50;;;26.20;1.00;;;;;;2613583;39;20899;-62
2024/03/09 12:08:53;;;;;;;3.37;3.27;;;25.90;1.00;;;;;;2613270;47;20427;-63
2024/03/09 12:11:48;;;;;;;3.60;3.50;;;25.70;1.00;;;;;;2613205;46;20417;-63
2024/03/09 12:14:15;;;;;;;3.40;3.30;;;25.50;1.00;;;;;;2613730;54;20431;-63
2024/03/09 12:16:42;;;;;;;3.30;3.20;;;25.50;1.00;;;;;;2613084;54;20503;-62
2024/03/09 12:19:08;;;;;;;3.80;3.70;;;25.70;1.00;;;;;;2613535;47;20424;-62
2024/03/09 12:21:38;;;;;;;3.47;3.37;;;25.40;1.00;;;;;;2613434;54;20412;-63
2024/03/09 12:24:06;;;;;;;14.40;13.90;;;25.10;1.00;;;;;;2612878;54;20766;-64
2024/03/09 12:26:33;;;;;;;7.70;7.50;;;25.10;1.00;;;;;;2613209;47;20423;-60
2024/03/09 12:29:11;;;;;;;7.43;7.23;;;25.20;1.00;;;;;;2612421;54;20399;-59
2024/03/09 12:31:38;;;;;;;7.40;7.20;;;25.10;1.00;;;;;;2613429;54;20407;-62
2024/03/09 12:34:04;;;;;;;6.67;6.47;;;25.00;1.00;;;;;;2613432;54;20407;-62
2024/03/09 12:36:31;;;;;;;7.80;7.53;;;25.30;1.00;;;;;;2613550;54;20395;-61
2024/03/09 12:39:16;;;;;;;6.87;6.67;;;25.30;1.00;;;;;;2612252;54;20408;-60
2024/03/09 12:41:42;;;;;;;7.20;7.00;;;25.50;1.00;;;;;;2612873;54;20403;-60
2024/03/09 12:44:10;;;;;;;7.20;7.00;;;25.70;1.00;;;;;;2613256;39;20832;-60
2024/03/09 12:46:36;;;;;;;6.70;6.50;;;25.80;1.00;;;;;;2612387;54;21584;-60
2024/03/09 12:49:13;;;;;;;6.60;6.40;;;25.90;1.00;;;;;;2613112;54;20427;-60
2024/03/09 12:51:40;;;;;;;6.80;6.60;;;25.90;1.00;;;;;;2612499;54;20454;-60
2024/03/09 12:54:09;;;;;;;6.50;6.30;;;26.00;1.00;;;;;;2612716;54;20439;-59
2024/03/09 12:56:37;;;;;;;6.30;6.10;;;25.90;1.00;;;;;;2612003;54;20431;-59
2024/03/09 12:59:04;;;;;;;6.30;6.10;;;26.00;1.00;;;;;;2611942;47;20438;-60
2024/03/09 13:01:31;;;;;;;6.30;6.10;;;26.00;1.00;;;;;;2611635;54;20404;-60
2024/03/09 13:03:58;;;;;;;6.50;6.30;;;26.00;1.00;;;;;;2612001;54;20466;-59